Pacet, Indonesia

4:07 AM WIB on August 28, 2016 (GMT +0700)
Puncak Paragliding flying location | | Change Station

Elev 4318 ft 6.70 °S, 106.98 °E | Updated 10 minutes ago

Scattered Clouds
Scattered Clouds
66.5 °F
Feels Like 66.5 °F
N
0.0
Wind Variable Wind from NE
Gusts 0.0 mph

Today
High -- | Low -- °F
--% Chance of Precip.
Yesterday
High -- | Low -- °F
Precip. -- in
Pressure 29.86 in
Visibility -9999.0 miles
Clouds Scattered Clouds 2000 ft
Dew Point 64 °F
Humidity 91%
Rainfall 0.00 in
Snow Depth Not available.
5:54 AM 5:52 PM
Waning Crescent, 21% visible
METAR WIII 272100Z 16002KT 4600 BR SCT020 25/24 Q1011 NOSIG
Pressure 29.86 in
Visibility -9999.0 miles
Clouds Scattered Clouds 2000 ft
Dew Point 64 °F
Humidity 91%
Rainfall 0.00 in
Snow Depth Not available.
5:54 AM 5:52 PM
Waning Crescent, 21% visible
METAR WIII 272100Z 16002KT 4600 BR SCT020 25/24 Q1011 NOSIG

10-Day Weather Forecast

No radar image for this location.
×

Almanac

Astronomy

Aug. 28, 2016 Rise Set
Actual Time
Civil Twilight
Nautical Twilight
Astronomical Twilight
Moon
Length of Visible Light
Length of Day
Tomorrow will be .
, % of the Moon is Illuminated

Today's Extremes

Country Highs Country Lows

Community

WunderPhotos

Upload Photos

1,935,446 photos uploaded!

WunderBlog® & News

Nearby

Air Quality

  Air Quality AQ Index Pollutant
Not available.

Snow Depth

Station Depth Elevation

Earthquake Activity

City Distance Mag. Time & Date
Minimum magnitude displayed is 2.5.

Coastal Water Temperatures

Place Temperature

Stations

Nearby Weather Stations

Station Location Temp. Windchill Dew Point Humidity Wind Precip. Elev Updated Type